createdAt,value
2017-05-09T00:01:07.505Z,0
2017-05-09T00:02:17.468Z,0
2017-05-09T00:03:27.442Z,0
2017-05-09T00:04:37.659Z,0
2017-05-09T00:05:47.951Z,0
2017-05-09T00:06:58.237Z,0
2017-05-09T00:08:08.215Z,0
2017-05-09T00:09:18.195Z,0
2017-05-09T00:10:28.731Z,0
2017-05-09T00:11:38.701Z,0
2017-05-09T00:12:48.664Z,0
2017-05-09T00:13:58.638Z,0
2017-05-09T00:15:08.918Z,0
2017-05-09T00:16:19.136Z,0
2017-05-09T00:17:29.097Z,0
2017-05-09T00:18:39.392Z,0
2017-05-09T00:19:49.677Z,0
2017-05-09T00:20:59.643Z,0
2017-05-09T00:22:09.868Z,0
2017-05-09T00:23:20.143Z,0
2017-05-09T00:24:30.111Z,0
2017-05-09T00:25:40.389Z,0
2017-05-09T00:26:50.663Z,0
2017-05-09T00:28:01.210Z,0
2017-05-09T00:29:11.199Z,0
2017-05-09T00:30:21.158Z,0
2017-05-09T00:31:31.120Z,0
2017-05-09T00:32:41.082Z,0
2017-05-09T00:33:51.310Z,0
2017-05-09T00:35:01.597Z,0
2017-05-09T00:36:11.881Z,0
2017-05-09T00:37:21.856Z,0
2017-05-09T00:38:32.142Z,0
2017-05-09T00:39:42.682Z,0
2017-05-09T00:40:52.333Z,0
2017-05-09T00:42:02.607Z,0
2017-05-09T00:43:12.267Z,0
2017-05-09T00:44:22.537Z,0
2017-05-09T00:45:32.764Z,0
2017-05-09T00:46:42.733Z,0
2017-05-09T00:47:53.007Z,0
2017-05-09T00:49:03.288Z,0
2017-05-09T00:50:12.939Z,0
2017-05-09T00:51:23.225Z,0
2017-05-09T00:52:33.511Z,0
2017-05-09T00:53:43.790Z,0
2017-05-09T00:54:54.082Z,0
2017-05-09T00:56:04.355Z,0
2017-05-09T00:57:14.579Z,0
2017-05-09T00:58:24.546Z,0
2017-05-09T00:59:34.840Z,0
2017-05-09T01:00:45.126Z,0
2017-05-09T01:01:55.395Z,0
2017-05-09T01:03:05.932Z,0
2017-05-09T01:04:15.914Z,0
2017-05-09T01:05:26.195Z,0
2017-05-09T01:06:36.467Z,0
2017-05-09T01:07:46.755Z,0
2017-05-09T01:08:56.985Z,0
2017-05-09T01:10:07.271Z,0
2017-05-09T01:11:17.562Z,0
2017-05-09T01:12:27.834Z,0
2017-05-09T01:13:38.151Z,0
2017-05-09T01:14:48.690Z,0
2017-05-09T01:15:58.666Z,0
2017-05-09T01:17:08.629Z,0
2017-05-09T01:18:18.594Z,0
2017-05-09T01:19:28.884Z,0
2017-05-09T01:20:39.094Z,0
2017-05-09T01:21:48.763Z,0
2017-05-09T01:22:58.741Z,0
2017-05-09T01:24:08.717Z,0
2017-05-09T01:25:18.999Z,0
2017-05-09T01:26:29.561Z,0
2017-05-09T01:27:39.877Z,0
2017-05-09T01:28:50.160Z,0
2017-05-09T01:30:00.447Z,0
2017-05-09T01:31:10.732Z,0
2017-05-09T01:32:21.261Z,0
2017-05-09T01:33:31.229Z,0
2017-05-09T01:34:41.513Z,0
2017-05-09T01:35:51.474Z,0
2017-05-09T01:37:01.448Z,0
2017-05-09T01:38:12.027Z,0
2017-05-09T01:39:21.996Z,0
2017-05-09T01:40:32.283Z,0
2017-05-09T01:41:42.550Z,0
2017-05-09T01:42:52.823Z,0
2017-05-09T01:44:03.413Z,0
2017-05-09T01:45:13.693Z,0
2017-05-09T01:46:23.970Z,0
2017-05-09T01:47:34.254Z,0
2017-05-09T01:48:44.542Z,0
2017-05-09T01:49:55.096Z,0
2017-05-09T01:51:05.373Z,0
2017-05-09T01:52:15.043Z,0
2017-05-09T01:53:25.021Z,0
2017-05-09T01:54:34.989Z,0
2017-05-09T01:55:45.516Z,0
2017-05-09T01:56:55.785Z,0
2017-05-09T01:58:06.067Z,0
2017-05-09T01:59:15.757Z,0
2017-05-09T02:00:25.725Z,0
2017-05-09T02:01:36.244Z,0
2017-05-09T02:02:46.214Z,0
2017-05-09T02:03:56.501Z,0
2017-05-09T02:05:06.779Z,0
2017-05-09T02:06:17.060Z,0
2017-05-09T02:07:27.595Z,0
2017-05-09T02:08:37.869Z,0
2017-05-09T02:09:48.153Z,0
2017-05-09T02:10:58.118Z,0
2017-05-09T02:12:08.079Z,0
2017-05-09T02:13:18.323Z,0
2017-05-09T02:14:28.607Z,0
2017-05-09T02:15:38.573Z,0
2017-05-09T02:16:48.860Z,0
2017-05-09T02:17:59.131Z,0
2017-05-09T02:19:09.354Z,0
2017-05-09T02:20:19.317Z,0
2017-05-09T02:21:29.599Z,0
2017-05-09T02:22:39.884Z,0
2017-05-09T02:23:49.853Z,0
2017-05-09T02:25:00.421Z,0
2017-05-09T02:26:10.390Z,0
2017-05-09T02:27:20.674Z,0
2017-05-09T02:28:30.952Z,0
2017-05-09T02:29:41.227Z,0
2017-05-09T02:30:51.770Z,0
2017-05-09T02:32:02.049Z,0
2017-05-09T02:33:12.333Z,0
2017-05-09T02:34:22.616Z,0
2017-05-09T02:35:32.893Z,0
2017-05-09T02:36:43.424Z,0
2017-05-09T02:37:53.711Z,0
2017-05-09T02:39:03.362Z,0
2017-05-09T02:40:13.340Z,0
2017-05-09T02:41:23.662Z,0
2017-05-09T02:42:33.883Z,0
2017-05-09T02:43:44.159Z,0
2017-05-09T02:44:54.437Z,0
2017-05-09T02:46:04.719Z,0
2017-05-09T02:47:14.675Z,0
2017-05-09T02:48:25.223Z,0
2017-05-09T02:49:35.193Z,0
2017-05-09T02:50:45.476Z,0
2017-05-09T02:51:55.444Z,0
2017-05-09T02:53:05.423Z,0
2017-05-09T02:54:15.956Z,0
2017-05-09T02:55:25.608Z,0
2017-05-09T02:56:35.885Z,0
2017-05-09T02:57:46.156Z,0
2017-05-09T02:58:56.123Z,0
2017-05-09T03:00:06.041Z,0
2017-05-09T03:01:16.321Z,0
2017-05-09T03:02:26.598Z,0
2017-05-09T03:03:36.880Z,0
2017-05-09T03:04:46.847Z,0
2017-05-09T03:05:57.068Z,0
2017-05-09T03:07:07.345Z,0
2017-05-09T03:08:17.624Z,0
2017-05-09T03:09:27.899Z,0
2017-05-09T03:10:37.860Z,0
2017-05-09T03:11:48.402Z,0
2017-05-09T03:12:58.745Z,0
2017-05-09T03:14:09.018Z,0
2017-05-09T03:15:19.289Z,0
2017-05-09T03:16:29.573Z,0
2017-05-09T03:17:39.798Z,0
2017-05-09T03:18:50.072Z,0
2017-05-09T03:20:00.349Z,0
2017-05-09T03:21:10.323Z,0
2017-05-09T03:22:19.982Z,0
2017-05-09T03:23:30.518Z,0
2017-05-09T03:24:40.801Z,0
2017-05-09T03:25:51.083Z,0
2017-05-09T03:27:01.058Z,0
2017-05-09T03:28:11.365Z,0
2017-05-09T03:29:21.907Z,0
2017-05-09T03:30:32.197Z,4
2017-05-09T03:31:42.482Z,0
2017-05-09T03:32:52.449Z,0
2017-05-09T03:34:02.421Z,0
2017-05-09T03:35:12.691Z,0
2017-05-09T03:36:22.670Z,4
2017-05-09T03:37:32.953Z,4
2017-05-09T03:38:43.229Z,4
2017-05-09T03:39:53.512Z,0
2017-05-09T03:41:04.034Z,0
2017-05-09T03:42:13.998Z,0
2017-05-09T03:43:24.285Z,0
2017-05-09T03:44:34.574Z,0
2017-05-09T03:45:44.855Z,0
2017-05-09T03:46:55.073Z,136
2017-05-09T03:48:05.353Z,136
2017-05-09T03:49:15.314Z,144
2017-05-09T03:50:25.593Z,148
2017-05-09T03:51:35.871Z,148
2017-05-09T03:52:46.424Z,152
2017-05-09T03:53:56.701Z,156
2017-05-09T03:55:06.977Z,168
2017-05-09T03:56:17.249Z,180
2017-05-09T03:57:27.222Z,188
2017-05-09T03:58:37.432Z,192
2017-05-09T03:59:47.725Z,192
2017-05-09T04:00:57.685Z,188
2017-05-09T04:02:07.966Z,192
2017-05-09T04:03:18.244Z,204
2017-05-09T04:04:28.457Z,216
2017-05-09T04:05:38.110Z,228
2017-05-09T04:06:48.075Z,232
2017-05-09T04:07:58.363Z,236
2017-05-09T04:09:08.646Z,248
2017-05-09T04:10:18.875Z,260
2017-05-09T04:11:29.163Z,272
2017-05-09T04:12:39.139Z,292
2017-05-09T04:13:49.123Z,308
2017-05-09T04:14:59.435Z,304
2017-05-09T04:16:09.968Z,304
2017-05-09T04:17:20.263Z,308
2017-05-09T04:18:30.232Z,312
2017-05-09T04:19:40.519Z,316
2017-05-09T04:20:50.175Z,332
2017-05-09T04:22:00.095Z,344
2017-05-09T04:23:10.060Z,360
2017-05-09T04:24:20.342Z,372
2017-05-09T04:25:30.627Z,380
2017-05-09T04:26:40.904Z,396
2017-05-09T04:27:51.442Z,420
2017-05-09T04:29:01.718Z,444
2017-05-09T04:30:11.991Z,476
2017-05-09T04:31:21.946Z,520
2017-05-09T04:32:31.955Z,576
2017-05-09T04:33:42.192Z,624
2017-05-09T04:34:52.467Z,672
2017-05-09T04:36:02.746Z,704
2017-05-09T04:37:13.128Z,720
2017-05-09T04:38:23.408Z,744
2017-05-09T04:39:33.939Z,768
2017-05-09T04:40:43.912Z,792
2017-05-09T04:41:54.188Z,804
2017-05-09T04:43:04.468Z,772
2017-05-09T04:44:14.735Z,724
2017-05-09T04:45:24.649Z,692
2017-05-09T04:46:34.613Z,680
2017-05-09T04:47:44.593Z,720
2017-05-09T04:48:54.879Z,780
2017-05-09T04:50:05.156Z,812
2017-05-09T04:51:15.699Z,812
2017-05-09T04:52:25.976Z,796
2017-05-09T04:53:36.255Z,764
2017-05-09T04:54:46.534Z,768
2017-05-09T04:55:56.193Z,776
2017-05-09T04:57:06.405Z,796
2017-05-09T04:58:16.712Z,788
2017-05-09T04:59:26.998Z,760
2017-05-09T05:00:37.286Z,724
2017-05-09T05:01:47.561Z,712
2017-05-09T05:02:58.090Z,720
2017-05-09T05:04:08.057Z,736
2017-05-09T05:05:18.325Z,744
2017-05-09T05:06:28.300Z,732
2017-05-09T05:07:38.587Z,712
2017-05-09T05:08:49.126Z,684
2017-05-09T05:09:58.788Z,672
2017-05-09T05:11:08.442Z,664
2017-05-09T05:12:18.412Z,688
2017-05-09T05:13:28.692Z,720
2017-05-09T05:14:38.594Z,736
2017-05-09T05:15:48.875Z,796
2017-05-09T05:16:59.151Z,884
2017-05-09T05:18:09.426Z,1000
2017-05-09T05:19:19.407Z,1120
2017-05-09T05:20:29.958Z,1188
2017-05-09T05:21:40.242Z,1256
2017-05-09T05:22:50.636Z,1308
2017-05-09T05:24:00.931Z,1384
2017-05-09T05:25:11.211Z,1412
2017-05-09T05:26:21.483Z,1400
2017-05-09T05:27:31.763Z,1336
2017-05-09T05:28:41.744Z,1288
2017-05-09T05:29:52.031Z,1296
2017-05-09T05:31:02.312Z,1400
2017-05-09T05:32:12.542Z,1500
2017-05-09T05:33:22.512Z,1556
2017-05-09T05:34:32.511Z,1584
2017-05-09T05:35:42.797Z,1580
2017-05-09T05:36:53.081Z,1552
2017-05-09T05:38:03.382Z,1532
2017-05-09T05:39:13.382Z,1512
2017-05-09T05:40:23.663Z,1504
2017-05-09T05:41:33.953Z,1516
2017-05-09T05:42:44.237Z,1556
2017-05-09T05:43:54.769Z,1584
2017-05-09T05:45:05.284Z,1624
2017-05-09T05:46:15.565Z,1724
2017-05-09T05:47:25.845Z,1800
2017-05-09T05:48:36.179Z,1812
2017-05-09T05:49:46.728Z,1832
2017-05-09T05:50:57.006Z,1820
2017-05-09T05:52:07.291Z,1812
2017-05-09T05:53:17.572Z,1836
2017-05-09T05:54:27.903Z,1736
2017-05-09T05:55:38.438Z,1620
2017-05-09T05:56:48.417Z,1548
2017-05-09T05:57:58.715Z,1460
2017-05-09T05:59:08.997Z,1432
2017-05-09T06:00:18.959Z,1532
2017-05-09T06:01:29.542Z,1616
2017-05-09T06:02:39.821Z,1608
2017-05-09T06:03:49.490Z,1564
2017-05-09T06:04:59.782Z,1532
2017-05-09T06:06:10.089Z,1540
2017-05-09T06:07:20.675Z,1540
2017-05-09T06:08:30.990Z,1572
2017-05-09T06:09:41.280Z,1636
2017-05-09T06:10:51.291Z,1716
2017-05-09T06:12:01.607Z,1752
2017-05-09T06:13:12.156Z,1660
2017-05-09T06:14:22.438Z,1512
2017-05-09T06:15:32.752Z,1420
2017-05-09T06:16:42.736Z,1412
2017-05-09T06:17:53.056Z,1444
2017-05-09T06:19:02.993Z,1576
2017-05-09T06:20:13.316Z,1732
2017-05-09T06:21:23.638Z,1796
2017-05-09T06:22:33.932Z,1808
2017-05-09T06:23:43.896Z,1888
2017-05-09T06:24:54.141Z,2060
2017-05-09T06:26:04.131Z,2196
2017-05-09T06:27:14.463Z,2288
2017-05-09T06:28:24.763Z,2392
2017-05-09T06:29:34.750Z,2500
2017-05-09T06:30:44.985Z,2592
2017-05-09T06:31:54.984Z,2692
2017-05-09T06:33:04.659Z,2800
2017-05-09T06:34:14.955Z,2872
2017-05-09T06:35:24.938Z,2904
2017-05-09T06:36:35.165Z,2920
2017-05-09T06:37:45.150Z,2996
2017-05-09T06:38:55.444Z,3160
2017-05-09T06:40:05.802Z,3324
2017-05-09T06:41:15.808Z,3516
2017-05-09T06:42:26.365Z,3708
2017-05-09T06:43:36.698Z,3840
2017-05-09T06:44:46.994Z,3896
2017-05-09T06:45:57.299Z,3872
2017-05-09T06:47:07.297Z,3716
2017-05-09T06:48:17.531Z,3408
2017-05-09T06:49:27.670Z,3076
2017-05-09T06:50:37.493Z,2732
2017-05-09T06:51:47.837Z,2564
2017-05-09T06:52:58.136Z,2436
2017-05-09T06:54:08.701Z,2324
2017-05-09T06:55:18.389Z,2304
2017-05-09T06:56:28.949Z,2420
2017-05-09T06:57:38.932Z,2672
2017-05-09T06:58:48.924Z,2960
2017-05-09T06:59:59.458Z,3152
2017-05-09T07:01:09.430Z,3236
2017-05-09T07:02:19.720Z,3268
2017-05-09T07:03:30.041Z,3268
2017-05-09T07:04:40.030Z,3276
2017-05-09T07:05:50.571Z,3324
2017-05-09T07:07:00.869Z,3284
2017-05-09T07:08:11.204Z,3272
2017-05-09T07:09:21.506Z,3344
2017-05-09T07:10:31.821Z,3404
2017-05-09T07:11:41.743Z,3404
2017-05-09T07:12:52.053Z,3440
2017-05-09T07:14:02.023Z,3576
2017-05-09T07:15:12.315Z,3668
2017-05-09T07:16:22.044Z,3740
2017-05-09T07:17:32.319Z,3752
2017-05-09T07:18:42.615Z,3656
2017-05-09T07:19:52.922Z,3504
2017-05-09T07:21:03.220Z,3296
2017-05-09T07:22:13.547Z,3108
2017-05-09T07:23:23.785Z,3028
2017-05-09T07:24:34.033Z,3012
2017-05-09T07:25:44.330Z,3060
2017-05-09T07:26:54.644Z,3180
2017-05-09T07:28:04.660Z,3276
2017-05-09T07:29:14.890Z,3308
2017-05-09T07:30:25.179Z,3288
2017-05-09T07:31:35.461Z,3180
2017-05-09T07:32:45.765Z,3040
2017-05-09T07:33:55.755Z,2912
2017-05-09T07:35:06.288Z,2848
2017-05-09T07:36:16.576Z,2920
2017-05-09T07:37:26.864Z,2960
2017-05-09T07:38:36.854Z,2888
2017-05-09T07:39:46.843Z,2784
2017-05-09T07:40:56.760Z,2684
2017-05-09T07:42:06.737Z,2764
2017-05-09T07:43:17.020Z,2724
2017-05-09T07:44:26.680Z,2872
2017-05-09T07:45:36.972Z,3116
2017-05-09T07:46:47.551Z,3408
2017-05-09T07:47:57.830Z,3264
2017-05-09T07:49:08.137Z,3332
2017-05-09T07:50:18.439Z,3608
2017-05-09T07:51:28.727Z,3504
2017-05-09T07:52:39.329Z,3528
2017-05-09T07:53:49.307Z,3468
2017-05-09T07:54:59.586Z,3480
2017-05-09T07:56:09.570Z,3424
2017-05-09T07:57:19.877Z,3440
2017-05-09T07:58:30.431Z,3444
2017-05-09T07:59:40.407Z,3452
2017-05-09T08:00:50.708Z,3532
2017-05-09T08:02:01.008Z,3632
2017-05-09T08:03:11.283Z,3852
2017-05-09T08:04:21.853Z,3712
2017-05-09T08:05:31.908Z,3484
2017-05-09T08:06:42.228Z,3472
2017-05-09T08:07:52.203Z,3444
2017-05-09T08:09:02.182Z,3500
2017-05-09T08:10:12.736Z,3528
2017-05-09T08:11:22.727Z,3556
2017-05-09T08:12:32.759Z,3492
2017-05-09T08:13:43.061Z,3452
2017-05-09T08:14:53.348Z,3752
2017-05-09T08:16:03.888Z,4128
2017-05-09T08:17:13.549Z,4452
2017-05-09T08:18:23.542Z,4232
2017-05-09T08:19:33.837Z,3848
2017-05-09T08:20:43.828Z,3528
2017-05-09T08:21:54.369Z,3308
2017-05-09T08:23:04.369Z,2676
2017-05-09T08:24:14.370Z,2364
2017-05-09T08:25:24.391Z,2252
2017-05-09T08:26:34.369Z,2248
2017-05-09T08:27:44.621Z,2368
2017-05-09T08:28:54.598Z,2728
2017-05-09T08:30:04.577Z,3240
2017-05-09T08:31:14.259Z,3680
2017-05-09T08:32:24.239Z,3828
2017-05-09T08:33:34.474Z,3660
2017-05-09T08:34:44.766Z,3604
2017-05-09T08:35:54.428Z,3704
2017-05-09T08:37:04.764Z,3460
2017-05-09T08:38:15.062Z,3096
2017-05-09T08:39:25.611Z,2924
2017-05-09T08:40:35.903Z,3072
2017-05-09T08:41:45.869Z,2976
2017-05-09T08:42:56.169Z,2424
2017-05-09T08:44:06.177Z,2120
2017-05-09T08:45:16.724Z,1920
2017-05-09T08:46:26.703Z,1692
2017-05-09T08:47:36.678Z,1532
2017-05-09T08:48:46.678Z,1556
2017-05-09T08:49:56.673Z,1636
2017-05-09T08:51:07.227Z,1776
2017-05-09T08:52:17.542Z,1880
2017-05-09T08:53:27.835Z,2016
2017-05-09T08:54:38.334Z,2220
2017-05-09T08:55:48.628Z,2440
2017-05-09T08:56:58.875Z,2472
2017-05-09T08:58:08.869Z,2388
2017-05-09T08:59:19.171Z,2928
2017-05-09T09:00:29.466Z,3548
2017-05-09T09:01:39.780Z,3720
2017-05-09T09:02:50.326Z,3188
2017-05-09T09:04:00.612Z,3128
2017-05-09T09:05:10.285Z,3264
2017-05-09T09:06:19.951Z,3140
2017-05-09T09:07:30.253Z,3280
2017-05-09T09:08:40.487Z,3016
2017-05-09T09:09:50.786Z,2740
2017-05-09T09:11:01.109Z,2468
2017-05-09T09:12:11.399Z,2472
2017-05-09T09:13:21.386Z,2516
2017-05-09T09:14:31.923Z,2688
2017-05-09T09:15:42.222Z,2580
2017-05-09T09:16:52.503Z,2568
2017-05-09T09:18:02.488Z,2128
2017-05-09T09:19:12.783Z,1916
2017-05-09T09:20:23.024Z,2044
2017-05-09T09:21:33.326Z,2380
2017-05-09T09:22:43.626Z,2928
2017-05-09T09:23:53.924Z,3684
2017-05-09T09:25:04.221Z,4528
2017-05-09T09:26:14.777Z,4636
2017-05-09T09:27:25.314Z,4072
2017-05-09T09:28:35.295Z,2848
2017-05-09T09:29:45.602Z,2032
2017-05-09T09:30:55.897Z,1576
2017-05-09T09:32:06.431Z,1392
2017-05-09T09:33:16.722Z,1304
2017-05-09T09:34:27.015Z,1252
2017-05-09T09:35:37.337Z,1232
2017-05-09T09:36:47.427Z,1180
2017-05-09T09:37:58.094Z,1040
2017-05-09T09:39:08.117Z,908
2017-05-09T09:40:18.498Z,920
2017-05-09T09:41:28.956Z,1100
2017-05-09T09:42:39.039Z,1272
2017-05-09T09:43:49.645Z,1416
2017-05-09T09:44:59.718Z,1664
2017-05-09T09:46:09.727Z,1840
2017-05-09T09:47:20.049Z,1724
2017-05-09T09:48:30.402Z,1448
2017-05-09T09:49:40.630Z,1308
2017-05-09T09:50:50.602Z,1268
2017-05-09T09:52:00.274Z,1260
2017-05-09T09:53:10.588Z,1244
2017-05-09T09:54:20.896Z,1280
2017-05-09T09:55:31.477Z,1276
2017-05-09T09:56:41.798Z,1296
2017-05-09T09:57:52.094Z,1308
2017-05-09T09:59:02.403Z,1344
2017-05-09T10:00:12.693Z,1444
2017-05-09T10:01:22.925Z,1448
2017-05-09T10:02:33.219Z,1460
2017-05-09T10:03:43.518Z,1468
2017-05-09T10:04:53.835Z,1480
2017-05-09T10:06:04.138Z,1496
2017-05-09T10:07:14.670Z,1520
2017-05-09T10:08:24.645Z,1536
2017-05-09T10:09:34.672Z,1548
2017-05-09T10:10:44.681Z,1452
2017-05-09T10:11:54.974Z,1512
2017-05-09T10:13:05.510Z,1548
2017-05-09T10:14:15.178Z,1640
2017-05-09T10:15:25.496Z,1700
2017-05-09T10:16:35.827Z,1820
2017-05-09T10:17:46.122Z,1880
2017-05-09T10:18:56.678Z,1920
2017-05-09T10:20:06.984Z,2032
2017-05-09T10:21:17.268Z,2204
2017-05-09T10:22:27.581Z,2728
2017-05-09T10:23:37.965Z,3324
2017-05-09T10:24:48.687Z,3376
2017-05-09T10:25:59.056Z,3204
2017-05-09T10:27:09.066Z,3604
2017-05-09T10:28:19.439Z,3972
2017-05-09T10:29:29.509Z,3808
2017-05-09T10:30:40.352Z,3220
2017-05-09T10:31:50.707Z,2784
2017-05-09T10:33:01.099Z,2560
2017-05-09T10:34:10.794Z,2580
2017-05-09T10:35:21.174Z,2628
2017-05-09T10:36:31.779Z,2804
2017-05-09T10:37:42.108Z,2620
2017-05-09T10:38:52.450Z,2532
2017-05-09T10:40:02.472Z,2744
2017-05-09T10:41:12.844Z,2692
2017-05-09T10:42:23.449Z,2576
2017-05-09T10:43:33.807Z,2436
2017-05-09T10:44:44.185Z,2344
2017-05-09T10:45:54.557Z,2236
2017-05-09T10:47:04.909Z,2080
2017-05-09T10:48:15.533Z,2220
2017-05-09T10:49:25.581Z,2232
2017-05-09T10:50:35.950Z,2228
2017-05-09T10:51:46.025Z,2096
2017-05-09T10:52:56.432Z,2180
2017-05-09T10:54:07.028Z,2116
2017-05-09T10:55:17.028Z,2028
2017-05-09T10:56:26.693Z,2100
2017-05-09T10:57:36.981Z,2124
2017-05-09T10:58:46.661Z,2260
2017-05-09T10:59:57.212Z,2472
2017-05-09T11:01:07.525Z,2920
2017-05-09T11:02:17.498Z,3300
2017-05-09T11:03:28.028Z,3328
2017-05-09T11:04:38.335Z,3548
2017-05-09T11:05:48.873Z,3848
2017-05-09T11:06:59.159Z,3740
2017-05-09T11:08:09.156Z,2504
2017-05-09T11:09:19.521Z,2020
2017-05-09T11:10:29.513Z,1404
2017-05-09T11:11:39.797Z,988
2017-05-09T11:12:50.347Z,792
2017-05-09T11:14:00.682Z,704
2017-05-09T11:15:10.984Z,680
2017-05-09T11:16:21.308Z,684
2017-05-09T11:17:31.870Z,692
2017-05-09T11:18:42.190Z,716
2017-05-09T11:19:52.182Z,768
2017-05-09T11:21:02.206Z,824
2017-05-09T11:22:12.504Z,900
2017-05-09T11:23:22.759Z,1008
2017-05-09T11:24:32.747Z,1132
2017-05-09T11:25:43.029Z,1248
2017-05-09T11:26:53.318Z,1344
2017-05-09T11:28:03.614Z,1484
2017-05-09T11:29:13.847Z,1636
2017-05-09T11:30:24.169Z,1896
2017-05-09T11:31:34.479Z,2136
2017-05-09T11:32:44.491Z,2332
2017-05-09T11:33:54.772Z,2612
2017-05-09T11:35:05.371Z,2852
2017-05-09T11:36:15.706Z,2888
2017-05-09T11:37:26.015Z,2856
2017-05-09T11:38:36.300Z,2624
2017-05-09T11:39:46.589Z,2260
2017-05-09T11:40:57.177Z,1964
2017-05-09T11:42:06.838Z,1764
2017-05-09T11:43:17.131Z,1704
2017-05-09T11:44:27.106Z,1740
2017-05-09T11:45:37.320Z,1892
2017-05-09T11:46:47.869Z,2136
2017-05-09T11:47:57.849Z,2320
2017-05-09T11:49:08.329Z,2380
2017-05-09T11:50:18.618Z,2624
2017-05-09T11:51:28.902Z,3020
2017-05-09T11:52:39.441Z,3124
2017-05-09T11:53:49.759Z,3308
2017-05-09T11:55:00.086Z,3656
2017-05-09T11:56:10.386Z,3952
2017-05-09T11:57:20.708Z,4236
2017-05-09T11:58:30.939Z,4252
2017-05-09T11:59:40.931Z,4208
2017-05-09T12:00:51.229Z,4268
2017-05-09T12:02:01.528Z,4320
2017-05-09T12:03:11.508Z,4380
2017-05-09T12:04:21.727Z,4328
2017-05-09T12:05:31.389Z,4276
2017-05-09T12:06:41.680Z,4220
2017-05-09T12:07:51.987Z,4168
2017-05-09T12:09:02.188Z,4012
2017-05-09T12:10:12.751Z,3864
2017-05-09T12:11:23.043Z,3756
2017-05-09T12:12:33.377Z,3716
2017-05-09T12:13:43.376Z,3664
2017-05-09T12:14:53.684Z,3536
2017-05-09T12:16:03.631Z,3300
2017-05-09T12:17:13.925Z,3120
2017-05-09T12:18:24.211Z,3052
2017-05-09T12:19:34.520Z,3048
2017-05-09T12:20:44.834Z,3060
2017-05-09T12:21:55.062Z,3052
2017-05-09T12:23:05.035Z,3036
2017-05-09T12:24:15.008Z,3016
2017-05-09T12:25:24.981Z,3008
2017-05-09T12:26:35.297Z,3000
2017-05-09T12:27:45.581Z,3012
2017-05-09T12:28:55.871Z,3064
2017-05-09T12:30:06.171Z,3152
2017-05-09T12:31:16.486Z,3216
2017-05-09T12:32:26.783Z,3256
2017-05-09T12:33:37.346Z,3244
2017-05-09T12:34:47.373Z,3192
2017-05-09T12:35:57.674Z,3048
2017-05-09T12:37:07.660Z,2872
2017-05-09T12:38:17.667Z,2740
2017-05-09T12:39:28.223Z,2636
2017-05-09T12:40:38.210Z,2596
2017-05-09T12:41:48.505Z,2556
2017-05-09T12:42:58.521Z,2536
2017-05-09T12:44:08.832Z,2564
2017-05-09T12:45:19.374Z,2628
2017-05-09T12:46:29.709Z,2732
2017-05-09T12:47:40.016Z,2876
2017-05-09T12:48:50.015Z,3044
2017-05-09T12:50:00.004Z,3168
2017-05-09T12:51:10.241Z,3156
2017-05-09T12:52:20.217Z,3060
2017-05-09T12:53:30.508Z,2912
2017-05-09T12:54:40.803Z,2808
2017-05-09T12:55:51.137Z,2776
2017-05-09T12:57:01.706Z,2856
2017-05-09T12:58:12.053Z,2952
2017-05-09T12:59:22.377Z,2976
2017-05-09T13:00:32.686Z,2912
2017-05-09T13:01:42.981Z,2752
2017-05-09T13:02:53.548Z,2604
2017-05-09T13:04:03.850Z,2520
2017-05-09T13:05:14.138Z,2484
2017-05-09T13:06:24.143Z,2444
2017-05-09T13:07:34.122Z,2380
2017-05-09T13:08:44.655Z,2296
2017-05-09T13:09:54.942Z,2200
2017-05-09T13:11:05.228Z,2120
2017-05-09T13:12:15.209Z,2088
2017-05-09T13:13:25.508Z,2048
2017-05-09T13:14:36.062Z,1984
2017-05-09T13:15:46.032Z,1912
2017-05-09T13:16:56.335Z,1844
2017-05-09T13:18:06.647Z,1796
2017-05-09T13:19:16.927Z,1776
2017-05-09T13:20:26.853Z,1772
2017-05-09T13:21:37.147Z,1792
2017-05-09T13:22:47.441Z,1816
2017-05-09T13:23:57.727Z,1816
2017-05-09T13:25:08.015Z,1816
2017-05-09T13:26:18.596Z,1836
2017-05-09T13:27:28.878Z,1888
2017-05-09T13:28:39.182Z,1960
2017-05-09T13:29:49.167Z,2004
2017-05-09T13:30:59.458Z,2048
2017-05-09T13:32:10.018Z,2112
2017-05-09T13:33:20.322Z,2140
2017-05-09T13:34:30.297Z,2136
2017-05-09T13:35:40.590Z,2108
2017-05-09T13:36:50.889Z,2104
2017-05-09T13:38:01.130Z,2120
2017-05-09T13:39:11.414Z,2128
2017-05-09T13:40:21.697Z,2124
2017-05-09T13:41:31.377Z,2088
2017-05-09T13:42:41.358Z,2060
2017-05-09T13:43:51.885Z,2040
2017-05-09T13:45:01.868Z,2008
2017-05-09T13:46:12.164Z,1936
2017-05-09T13:47:22.143Z,1888
2017-05-09T13:48:32.131Z,1852
2017-05-09T13:49:42.709Z,1796
2017-05-09T13:50:52.678Z,1748
2017-05-09T13:52:02.960Z,1736
2017-05-09T13:53:12.930Z,1732
2017-05-09T13:54:23.214Z,1712
2017-05-09T13:55:33.440Z,1700
2017-05-09T13:56:43.721Z,1700
2017-05-09T13:57:54.020Z,1704
2017-05-09T13:59:04.303Z,1712
2017-05-09T14:00:13.970Z,1708
2017-05-09T14:01:24.194Z,1716
2017-05-09T14:02:34.162Z,1772
2017-05-09T14:03:44.477Z,1868
2017-05-09T14:04:54.475Z,2004
2017-05-09T14:06:04.455Z,2148
2017-05-09T14:07:14.679Z,2304
2017-05-09T14:08:24.968Z,2488
2017-05-09T14:09:35.256Z,2688
2017-05-09T14:10:45.276Z,2796
2017-05-09T14:11:55.569Z,2772
2017-05-09T14:13:06.115Z,2624
2017-05-09T14:14:16.397Z,2448
2017-05-09T14:15:26.711Z,2276
2017-05-09T14:16:37.012Z,2112
2017-05-09T14:17:47.297Z,2004
2017-05-09T14:18:57.846Z,1924
2017-05-09T14:20:08.150Z,1868
2017-05-09T14:21:18.124Z,1868
2017-05-09T14:22:28.425Z,1944
2017-05-09T14:23:38.732Z,2056
2017-05-09T14:24:48.970Z,2068
2017-05-09T14:25:59.257Z,2072
2017-05-09T14:27:09.550Z,2096
2017-05-09T14:28:19.525Z,2128
2017-05-09T14:29:29.850Z,2132
2017-05-09T14:30:40.415Z,2084
2017-05-09T14:31:50.700Z,2092
2017-05-09T14:33:00.674Z,2192
2017-05-09T14:34:10.335Z,2328
2017-05-09T14:35:20.313Z,2452
2017-05-09T14:36:30.546Z,2540
2017-05-09T14:37:40.869Z,2596
2017-05-09T14:38:51.149Z,2612
2017-05-09T14:40:01.445Z,2604
2017-05-09T14:41:11.416Z,2588
2017-05-09T14:42:21.981Z,2524
2017-05-09T14:43:32.268Z,2440
2017-05-09T14:44:42.560Z,2412
2017-05-09T14:45:52.625Z,2456
2017-05-09T14:47:02.597Z,2456
2017-05-09T14:48:12.824Z,2328
2017-05-09T14:49:23.122Z,2180
2017-05-09T14:50:33.090Z,2068
2017-05-09T14:51:43.080Z,2000
2017-05-09T14:52:53.375Z,1948
2017-05-09T14:54:03.922Z,1860
2017-05-09T14:55:14.216Z,1752
2017-05-09T14:56:24.207Z,1640
2017-05-09T14:57:34.492Z,1560
2017-05-09T14:58:44.795Z,1528
2017-05-09T14:59:55.338Z,1492
2017-05-09T15:01:05.622Z,1460
2017-05-09T15:02:15.917Z,1480
2017-05-09T15:03:26.205Z,1504
2017-05-09T15:04:36.497Z,1524
2017-05-09T15:05:47.032Z,1580
2017-05-09T15:06:57.012Z,1608
2017-05-09T15:08:07.302Z,1612
2017-05-09T15:09:17.627Z,1604
2017-05-09T15:10:27.618Z,1588
2017-05-09T15:11:37.837Z,1592
2017-05-09T15:12:48.134Z,1616
2017-05-09T15:13:58.112Z,1644
2017-05-09T15:15:08.406Z,1624
2017-05-09T15:16:18.720Z,1556
2017-05-09T15:17:29.276Z,1492
2017-05-09T15:18:39.271Z,1468
2017-05-09T15:19:49.264Z,1468
2017-05-09T15:20:59.265Z,1520
2017-05-09T15:22:09.568Z,1564
2017-05-09T15:23:20.111Z,1552
2017-05-09T15:24:30.416Z,1484
2017-05-09T15:25:40.717Z,1424
2017-05-09T15:26:51.021Z,1380
2017-05-09T15:28:00.691Z,1384
2017-05-09T15:29:11.233Z,1436
2017-05-09T15:30:21.522Z,1520
2017-05-09T15:31:31.809Z,1604
2017-05-09T15:32:41.817Z,1684
2017-05-09T15:33:52.131Z,1772
2017-05-09T15:35:02.372Z,1912
2017-05-09T15:36:12.647Z,2080
2017-05-09T15:37:22.944Z,2212
2017-05-09T15:38:33.247Z,2272
2017-05-09T15:39:43.542Z,2256
2017-05-09T15:40:53.785Z,2212
2017-05-09T15:42:03.775Z,2180
2017-05-09T15:43:14.116Z,2128
2017-05-09T15:44:24.396Z,2028
2017-05-09T15:45:34.686Z,1936
2017-05-09T15:46:44.902Z,1836
2017-05-09T15:47:55.183Z,1732
2017-05-09T15:49:05.471Z,1576
2017-05-09T15:50:15.438Z,1472
2017-05-09T15:51:25.741Z,1500
2017-05-09T15:52:36.297Z,1596
2017-05-09T15:53:46.598Z,1684
2017-05-09T15:54:56.904Z,1668
2017-05-09T15:56:06.878Z,1548
2017-05-09T15:57:16.784Z,1456
2017-05-09T15:58:27.328Z,1396
2017-05-09T15:59:37.349Z,1376
2017-05-09T16:00:47.635Z,1380